Time;durP1;ratioP1;P1;durP2;ratioP2;P2;SDS_P1;SDS_P2;PMS_P1;PMS_P2;Temp;Humidity;BMP_temperature;BMP_pressure;BME280_temperature;BME280_humidity;BME280_pressure;Samples;Min_cycle;Max_cycle;Signal;HPM_P1;HPM_P2
2022/10/09 00:00:07;;;;;;;16.37;8.00;;;8.90;1.00;;;;;;5081921;28;20584;-69
2022/10/09 00:02:33;;;;;;;13.13;6.60;;;8.80;1.00;;;;;;5088220;28;20194;-71
2022/10/09 00:04:58;;;;;;;12.03;8.60;;;8.80;1.00;;;;;;5088961;28;20469;-70
2022/10/09 00:07:24;;;;;;;21.33;9.83;;;8.80;1.00;;;;;;5088678;28;20549;-70
2022/10/09 00:09:49;;;;;;;15.80;7.70;;;8.80;1.00;;;;;;5088747;28;20199;-70
2022/10/09 00:12:15;;;;;;;11.20;6.50;;;8.80;1.00;;;;;;5088374;28;20182;-68
2022/10/09 00:14:40;;;;;;;21.60;9.90;;;8.80;1.00;;;;;;5080945;28;20183;-69
2022/10/09 00:17:06;;;;;;;19.70;7.40;;;8.70;1.00;;;;;;5093559;28;20240;-68
2022/10/09 00:19:31;;;;;;;11.83;7.50;;;8.60;1.00;;;;;;5085991;28;20697;-72
2022/10/09 00:21:56;;;;;;;24.27;13.27;;;8.60;1.00;;;;;;5088170;28;20380;-69
2022/10/09 00:24:22;;;;;;;11.87;6.73;;;8.60;1.00;;;;;;5072805;28;20208;-71
2022/10/09 00:26:47;;;;;;;11.27;6.20;;;8.50;1.00;;;;;;5086368;28;20194;-70
2022/10/09 00:29:13;;;;;;;13.97;7.10;;;8.50;1.00;;;;;;5087892;28;20719;-70
2022/10/09 00:31:39;;;;;;;14.20;6.40;;;8.50;1.00;;;;;;5088770;28;20171;-70
2022/10/09 00:34:04;;;;;;;13.93;6.60;;;8.50;1.00;;;;;;5080449;28;20273;-71
2022/10/09 00:36:30;;;;;;;20.57;6.33;;;8.60;3.40;;;;;;5088409;28;20184;-70
2022/10/09 00:38:56;;;;;;;13.40;6.37;;;8.70;3.40;;;;;;5077603;28;20264;-68
2022/10/09 00:41:29;;;;;;;13.93;5.83;;;8.70;1.00;;;;;;5083716;28;20441;-69
2022/10/09 00:43:58;;;;;;;9.13;5.83;;;8.90;1.80;;;;;;5080650;28;20445;-70
2022/10/09 00:46:45;;;;;;;10.37;6.27;;;8.90;1.00;;;;;;5088069;28;20461;-70
2022/10/09 00:49:13;;;;;;;14.13;6.60;;;8.90;1.00;;;;;;5085806;28;20776;-70
2022/10/09 00:51:42;;;;;;;14.13;6.47;;;8.80;1.00;;;;;;5092298;28;20451;-71
2022/10/09 00:54:12;;;;;;;9.63;5.60;;;8.80;1.00;;;;;;5076696;28;20418;-70
2022/10/09 00:56:37;;;;;;;11.53;5.53;;;8.80;1.00;;;;;;5089259;28;20907;-70
2022/10/09 00:59:04;;;;;;;11.13;6.13;;;8.70;1.00;;;;;;5090540;28;20448;-70
2022/10/09 01:01:30;;;;;;;11.23;6.10;;;8.70;1.00;;;;;;5092671;28;20171;-70
2022/10/09 01:03:55;;;;;;;11.37;5.93;;;8.70;1.00;;;;;;5090243;28;20421;-68
2022/10/09 01:06:46;;;;;;;12.50;6.30;;;8.70;1.00;;;;;;5092807;28;20308;-69
2022/10/09 01:09:27;;;;;;;9.53;5.27;;;8.60;1.00;;;;;;5088770;28;20282;-69
2022/10/09 01:11:59;;;;;;;9.77;5.53;;;8.60;1.00;;;;;;5093365;28;20409;-70
2022/10/09 01:14:36;;;;;;;10.53;5.60;;;8.50;1.00;;;;;;5097658;28;20429;-70
2022/10/09 01:17:13;;;;;;;12.03;5.73;;;8.50;1.00;;;;;;5082143;28;20456;-70
2022/10/09 01:20:00;;;;;;;12.17;5.87;;;8.40;1.00;;;;;;5078219;28;20462;-68
2022/10/09 01:23:12;;;;;;;9.97;5.40;;;8.40;1.00;;;;;;5090471;28;20412;-70
2022/10/09 01:26:11;;;;;;;10.30;6.23;;;8.40;1.00;;;;;;5075597;28;20841;-69
2022/10/09 01:28:40;;;;;;;14.20;4.93;;;8.40;1.00;;;;;;5090964;28;20465;-67
2022/10/09 01:31:06;;;;;;;9.77;4.77;;;8.40;1.00;;;;;;5089948;28;20409;-68
2022/10/09 01:33:33;;;;;;;7.50;5.30;;;8.40;1.00;;;;;;5091195;28;20915;-69
2022/10/09 01:36:00;;;;;;;10.57;5.40;;;8.40;1.00;;;;;;5081722;28;20974;-69
2022/10/09 01:38:27;;;;;;;7.67;5.10;;;8.30;1.00;;;;;;5080623;28;20524;-69
2022/10/09 01:40:53;;;;;;;7.23;5.00;;;8.30;1.00;;;;;;5083537;28;20509;-68
2022/10/09 01:43:19;;;;;;;10.60;5.83;;;8.30;1.00;;;;;;5090026;28;20430;-68
2022/10/09 01:45:46;;;;;;;12.20;5.10;;;8.20;1.00;;;;;;5091929;28;20497;-70
2022/10/09 01:48:23;;;;;;;9.33;5.60;;;8.10;1.00;;;;;;5100363;28;20171;-70
2022/10/09 01:50:58;;;;;;;8.23;5.10;;;8.10;1.00;;;;;;5084405;28;20433;-70
2022/10/09 01:53:25;;;;;;;8.07;5.40;;;8.10;1.00;;;;;;5089173;28;20439;-69
2022/10/09 01:56:15;;;;;;;8.50;5.07;;;8.00;1.00;;;;;;5081970;28;20824;-68
2022/10/09 01:58:52;;;;;;;9.93;4.87;;;7.90;1.00;;;;;;5083206;28;20647;-70
2022/10/09 02:01:28;;;;;;;8.43;4.80;;;7.80;1.00;;;;;;5091514;28;20409;-70
2022/10/09 02:03:57;;;;;;;9.60;5.10;;;7.80;1.00;;;;;;5083295;28;20936;-70
2022/10/09 02:06:25;;;;;;;9.17;4.60;;;7.80;1.00;;;;;;5091295;28;20460;-69
2022/10/09 02:08:52;;;;;;;11.53;5.03;;;7.70;1.00;;;;;;5089181;28;20501;-70
2022/10/09 02:11:18;;;;;;;10.80;4.80;;;7.60;1.00;;;;;;5090831;28;20414;-70
2022/10/09 02:13:46;;;;;;;14.33;5.13;;;7.50;1.00;;;;;;5082639;28;20785;-70
2022/10/09 02:16:31;;;;;;;8.60;5.00;;;7.50;1.00;;;;;;5096932;28;20183;-70
2022/10/09 02:19:01;;;;;;;10.70;4.83;;;7.40;1.00;;;;;;5083087;28;20445;-70
2022/10/09 02:21:37;;;;;;;11.07;5.47;;;7.40;1.00;;;;;;5089898;28;20433;-71
2022/10/09 02:24:06;;;;;;;12.83;5.83;;;7.40;2.80;;;;;;5079261;28;20436;-70
2022/10/09 02:26:32;;;;;;;13.80;5.53;;;7.50;12.00;;;;;;5087376;28;20457;-70
2022/10/09 02:28:58;;;;;;;9.70;5.57;;;7.70;15.20;;;;;;5082322;28;20560;-70
2022/10/09 02:31:29;;;;;;;8.47;5.00;;;7.90;14.80;;;;;;5091025;28;20168;-70
2022/10/09 02:34:01;;;;;;;8.93;5.53;;;8.00;13.70;;;;;;5084388;28;20176;-71
2022/10/09 02:36:27;;;;;;;9.30;5.70;;;8.00;11.40;;;;;;5090334;28;20426;-70
2022/10/09 02:38:54;;;;;;;10.17;6.00;;;8.00;22.50;;;;;;5084580;28;20931;-70
2022/10/09 02:41:20;;;;;;;12.80;6.40;;;8.10;17.40;;;;;;5096564;28;20409;-70
2022/10/09 02:43:46;;;;;;;11.53;5.60;;;8.20;16.60;;;;;;5081372;28;20496;-71
2022/10/09 02:46:11;;;;;;;9.77;5.80;;;8.20;8.60;;;;;;5095882;28;20452;-69
2022/10/09 02:48:37;;;;;;;13.10;5.03;;;8.10;1.00;;;;;;5101055;28;20167;-70
2022/10/09 02:51:03;;;;;;;7.40;5.20;;;8.00;3.30;;;;;;5087342;28;20259;-73
2022/10/09 02:53:28;;;;;;;8.30;5.10;;;8.00;5.70;;;;;;5088059;28;20168;-71
2022/10/09 02:55:54;;;;;;;13.73;5.77;;;8.00;3.10;;;;;;5089849;28;20179;-70
2022/10/09 02:58:19;;;;;;;10.70;6.00;;;7.90;4.40;;;;;;5077896;28;20183;-70
2022/10/09 03:00:52;;;;;;;8.50;5.67;;;8.80;7.50;;;;;;5086718;28;20321;-70
2022/10/09 03:03:19;;;;;;;10.80;5.20;;;7.90;5.50;;;;;;5084121;28;20186;-70
2022/10/09 03:05:45;;;;;;;8.80;5.10;;;7.70;1.00;;;;;;5090572;28;20567;-69
2022/10/09 03:08:11;;;;;;;8.70;5.07;;;7.60;1.00;;;;;;5106029;28;20488;-68
2022/10/09 03:10:38;;;;;;;11.37;5.07;;;7.60;3.30;;;;;;5110408;27;20919;-70
2022/10/09 03:13:04;;;;;;;10.07;5.00;;;7.60;2.20;;;;;;5110703;28;20401;-70
2022/10/09 03:15:33;;;;;;;10.13;5.60;;;7.60;5.80;;;;;;5106109;28;20417;-70
2022/10/09 03:17:59;;;;;;;11.43;6.37;;;7.70;6.40;;;;;;5094567;28;20428;-70
2022/10/09 03:20:25;;;;;;;12.00;6.00;;;7.70;5.70;;;;;;5093826;28;20505;-70
2022/10/09 03:22:50;;;;;;;9.60;6.40;;;7.60;5.40;;;;;;5089460;28;20260;-70
2022/10/09 03:25:16;;;;;;;9.57;6.43;;;7.60;10.00;;;;;;5090648;28;20199;-69
2022/10/09 03:27:41;;;;;;;12.50;6.50;;;7.70;10.90;;;;;;5089347;28;20441;-70
2022/10/09 03:30:07;;;;;;;12.63;6.13;;;7.60;12.40;;;;;;5089498;28;20215;-70
2022/10/09 03:32:33;;;;;;;13.20;7.07;;;7.60;15.10;;;;;;5086505;28;20203;-70
2022/10/09 03:34:58;;;;;;;12.17;6.70;;;7.60;11.40;;;;;;5081432;28;20897;-70
2022/10/09 03:37:24;;;;;;;7.23;5.67;;;7.60;10.00;;;;;;5069070;28;20172;-70
2022/10/09 03:39:50;;;;;;;10.20;6.33;;;7.50;3.20;;;;;;5069994;28;20535;-70
2022/10/09 03:42:15;;;;;;;8.60;5.90;;;7.30;7.40;;;;;;5068800;28;20172;-70
2022/10/09 03:44:41;;;;;;;15.30;6.90;;;7.20;10.10;;;;;;5076654;28;20203;-68
2022/10/09 03:47:06;;;;;;;12.03;6.77;;;7.20;9.50;;;;;;5098123;28;20211;-69
2022/10/09 03:49:32;;;;;;;11.87;6.63;;;7.20;14.80;;;;;;5106363;28;20633;-70
2022/10/09 03:51:57;;;;;;;14.70;7.03;;;7.10;16.30;;;;;;5090508;28;20184;-70
2022/10/09 03:54:23;;;;;;;12.10;6.13;;;7.10;18.60;;;;;;5082438;28;20586;-68
2022/10/09 03:56:48;;;;;;;15.90;7.50;;;7.20;17.90;;;;;;5082835;28;20212;-70
2022/10/09 03:59:14;;;;;;;10.43;7.27;;;7.20;24.70;;;;;;5080710;28;20243;-69
2022/10/09 04:01:39;;;;;;;10.00;6.13;;;7.30;32.10;;;;;;5081220;28;20184;-69
2022/10/09 04:04:05;;;;;;;12.37;7.40;;;7.30;25.50;;;;;;5084535;28;20176;-68
2022/10/09 04:06:30;;;;;;;14.30;7.40;;;7.30;26.00;;;;;;5086702;28;20265;-68
2022/10/09 04:08:56;;;;;;;10.90;6.50;;;7.30;23.50;;;;;;5086650;28;20198;-70
2022/10/09 04:11:21;;;;;;;15.30;6.97;;;7.30;21.60;;;;;;5087794;28;20524;-70
2022/10/09 04:13:47;;;;;;;13.67;6.23;;;7.20;23.00;;;;;;5084376;28;20172;-70
2022/10/09 04:16:12;;;;;;;9.90;6.20;;;7.20;18.00;;;;;;5088497;28;20186;-68
2022/10/09 04:18:43;;;;;;;9.77;6.90;;;7.20;19.90;;;;;;5083987;28;20184;-69
2022/10/09 04:21:08;;;;;;;9.53;6.67;;;7.20;24.10;;;;;;5084444;28;20720;-69
2022/10/09 04:23:34;;;;;;;16.10;7.60;;;7.20;18.70;;;;;;5073126;28;20447;-71
2022/10/09 04:26:00;;;;;;;13.47;6.30;;;7.30;21.10;;;;;;5084369;28;20196;-70
2022/10/09 04:28:27;;;;;;;8.07;6.10;;;7.30;21.20;;;;;;5083268;28;20634;-71
2022/10/09 04:30:53;;;;;;;10.57;6.87;;;7.30;14.60;;;;;;5085760;28;20690;-70
2022/10/09 04:33:19;;;;;;;13.17;6.27;;;7.30;13.60;;;;;;5086078;28;20442;-68
2022/10/09 04:35:48;;;;;;;13.50;6.53;;;7.20;14.90;;;;;;5082949;28;20184;-69
2022/10/09 04:38:14;;;;;;;13.17;6.13;;;7.20;9.30;;;;;;5086129;28;20776;-69
2022/10/09 04:40:39;;;;;;;9.00;6.70;;;7.10;12.80;;;;;;5083124;28;20465;-70
2022/10/09 04:43:05;;;;;;;10.20;6.20;;;7.00;15.20;;;;;;5088996;28;20241;-69
2022/10/09 04:45:31;;;;;;;9.30;6.40;;;7.00;18.60;;;;;;5085826;28;20215;-71
2022/10/09 04:47:57;;;;;;;12.00;7.03;;;7.00;16.20;;;;;;5088849;28;20199;-70
2022/10/09 04:50:22;;;;;;;10.60;5.80;;;7.00;18.10;;;;;;5082338;28;20344;-69
2022/10/09 04:52:48;;;;;;;9.73;5.67;;;7.00;16.70;;;;;;5073884;28;20444;-70
2022/10/09 04:55:14;;;;;;;9.97;5.67;;;7.00;15.40;;;;;;5081509;28;20606;-70
2022/10/09 04:57:39;;;;;;;8.57;5.60;;;7.00;15.00;;;;;;5084486;28;20194;-70
2022/10/09 05:00:05;;;;;;;12.83;6.10;;;7.00;12.60;;;;;;5079044;28;20208;-70
2022/10/09 05:02:31;;;;;;;18.13;5.80;;;7.00;14.60;;;;;;5082376;28;21016;-70
2022/10/09 05:04:56;;;;;;;9.80;5.80;;;6.90;14.40;;;;;;5079453;28;20458;-69
2022/10/09 05:07:23;;;;;;;9.70;5.70;;;7.00;13.70;;;;;;5084485;28;20176;-71
2022/10/09 05:09:48;;;;;;;8.80;5.47;;;7.00;10.50;;;;;;5086347;28;20198;-69
2022/10/09 05:12:14;;;;;;;14.53;8.90;;;7.00;9.40;;;;;;5087689;28;20502;-70
2022/10/09 05:14:39;;;;;;;12.03;7.10;;;7.00;9.10;;;;;;5083924;28;20267;-68
2022/10/09 05:17:06;;;;;;;11.33;6.63;;;6.90;7.50;;;;;;5079784;28;20759;-70
2022/10/09 05:19:31;;;;;;;10.23;5.57;;;6.90;9.10;;;;;;5081395;28;20079;-70
2022/10/09 05:21:58;;;;;;;9.70;5.93;;;6.90;7.30;;;;;;5082085;28;20694;-71
2022/10/09 05:24:24;;;;;;;12.43;5.67;;;7.00;19.70;;;;;;5077826;28;20176;-75
2022/10/09 05:26:49;;;;;;;8.43;5.07;;;7.50;73.10;;;;;;5075406;28;20435;-73
2022/10/09 05:29:15;;;;;;;13.20;5.30;;;7.70;36.80;;;;;;5081206;28;20580;-73
2022/10/09 05:31:41;;;;;;;6.73;4.70;;;7.70;19.90;;;;;;5080059;28;20654;-73
2022/10/09 05:34:07;;;;;;;7.93;4.73;;;7.70;14.70;;;;;;5086330;28;20716;-73
2022/10/09 05:36:32;;;;;;;8.87;5.13;;;7.60;16.20;;;;;;5082309;28;20438;-73
2022/10/09 05:39:00;;;;;;;9.40;5.30;;;7.40;1.00;;;;;;5078706;28;20629;-69
2022/10/09 05:41:26;;;;;;;12.50;6.23;;;7.20;1.00;;;;;;5087248;28;20232;-73
2022/10/09 05:43:52;;;;;;;7.70;5.40;;;7.00;1.00;;;;;;5092394;28;20406;-70
2022/10/09 05:46:20;;;;;;;8.07;5.33;;;6.90;1.00;;;;;;5090037;28;20468;-69
2022/10/09 05:48:51;;;;;;;8.20;5.10;;;6.90;1.00;;;;;;5084566;28;20318;-71
2022/10/09 05:51:20;;;;;;;8.03;5.00;;;6.80;1.00;;;;;;5078079;28;20418;-71
2022/10/09 05:53:47;;;;;;;11.00;5.30;;;6.80;1.00;;;;;;5085746;28;20426;-68
2022/10/09 05:56:34;;;;;;;12.27;4.83;;;6.70;1.00;;;;;;5084886;28;20449;-71
2022/10/09 05:59:03;;;;;;;11.17;5.50;;;6.70;1.00;;;;;;5091254;28;20516;-71
2022/10/09 06:01:34;;;;;;;14.20;5.30;;;6.70;1.00;;;;;;5088472;28;20448;-70
2022/10/09 06:04:01;;;;;;;8.10;6.00;;;6.70;1.50;;;;;;5082217;28;20421;-69
2022/10/09 06:06:29;;;;;;;10.33;5.50;;;6.70;1.00;;;;;;5088474;28;20461;-70
2022/10/09 06:08:56;;;;;;;7.57;5.40;;;6.80;1.00;;;;;;5088172;28;20481;-69
2022/10/09 06:11:30;;;;;;;8.47;6.30;;;6.80;1.00;;;;;;5080299;28;20427;-69
2022/10/09 06:13:57;;;;;;;9.53;5.77;;;6.80;1.00;;;;;;5091589;28;20825;-71
2022/10/09 06:16:25;;;;;;;7.23;5.40;;;6.80;1.00;;;;;;5085153;28;20434;-68
2022/10/09 06:18:53;;;;;;;10.73;6.40;;;6.90;1.00;;;;;;5091370;28;20438;-71
2022/10/09 06:21:19;;;;;;;9.13;6.00;;;7.00;1.00;;;;;;5087003;28;20426;-71
2022/10/09 06:23:52;;;;;;;13.40;7.70;;;7.10;1.00;;;;;;5087515;28;20429;-70
2022/10/09 06:26:19;;;;;;;9.47;6.67;;;7.10;1.00;;;;;;5079406;28;20800;-70
2022/10/09 06:28:45;;;;;;;12.07;6.30;;;7.20;1.00;;;;;;5087024;28;20429;-72
2022/10/09 06:31:14;;;;;;;10.90;6.00;;;7.30;1.00;;;;;;5083966;28;20406;-71
2022/10/09 06:33:41;;;;;;;8.40;6.07;;;7.40;1.00;;;;;;5088534;28;20508;-69
2022/10/09 06:36:09;;;;;;;8.97;5.90;;;7.40;1.00;;;;;;5090087;28;20425;-71
2022/10/09 06:38:36;;;;;;;8.13;5.50;;;7.50;1.00;;;;;;5087977;28;20793;-68
2022/10/09 06:41:03;;;;;;;8.70;5.47;;;7.50;1.00;;;;;;5090471;28;20471;-71
2022/10/09 06:43:29;;;;;;;9.40;5.60;;;7.60;1.00;;;;;;5088274;28;21007;-71
2022/10/09 06:45:55;;;;;;;11.27;6.67;;;7.70;1.00;;;;;;5093240;28;20478;-70
2022/10/09 06:48:21;;;;;;;15.60;8.20;;;7.70;1.00;;;;;;5094421;28;20549;-70
2022/10/09 06:50:46;;;;;;;10.13;5.80;;;7.80;1.00;;;;;;5084623;28;20449;-68
2022/10/09 06:53:12;;;;;;;13.70;7.20;;;7.80;1.00;;;;;;5082438;28;20168;-72
2022/10/09 06:55:37;;;;;;;12.83;7.70;;;7.80;1.00;;;;;;5085794;28;20183;-70
2022/10/09 06:58:03;;;;;;;12.00;6.53;;;7.90;1.00;;;;;;5083956;28;20424;-70
2022/10/09 07:00:28;;;;;;;10.73;6.83;;;8.00;1.00;;;;;;5086792;28;20498;-70
2022/10/09 07:02:54;;;;;;;8.47;5.67;;;8.10;1.00;;;;;;5091334;28;20658;-70
2022/10/09 07:05:20;;;;;;;9.27;5.87;;;8.20;1.00;;;;;;5090227;28;20650;-70
2022/10/09 07:07:45;;;;;;;9.80;5.70;;;8.30;1.00;;;;;;5090632;28;20212;-70
2022/10/09 07:10:11;;;;;;;9.97;7.10;;;8.40;1.00;;;;;;5072625;28;20292;-70
2022/10/09 07:12:37;;;;;;;7.27;5.97;;;8.50;1.00;;;;;;5070548;28;20272;-70
2022/10/09 07:15:05;;;;;;;10.13;6.70;;;8.60;1.00;;;;;;5072480;28;20271;-72
2022/10/09 07:17:31;;;;;;;8.27;6.53;;;8.70;1.00;;;;;;5102667;28;20425;-70
2022/10/09 07:19:56;;;;;;;14.03;6.47;;;8.90;2.20;;;;;;5091797;28;20940;-70
2022/10/09 07:22:22;;;;;;;12.57;7.17;;;9.00;1.90;;;;;;5089395;28;20723;-71
2022/10/09 07:24:49;;;;;;;8.30;5.80;;;9.20;2.80;;;;;;5089437;28;20187;-71
2022/10/09 07:27:15;;;;;;;9.50;4.13;;;9.40;6.70;;;;;;5086750;28;20326;-71
2022/10/09 07:29:40;;;;;;;11.90;4.23;;;9.80;10.90;;;;;;5070755;28;20936;-71
2022/10/09 07:32:06;;;;;;;7.23;3.53;;;10.20;6.20;;;;;;5071833;28;20169;-72
2022/10/09 07:34:31;;;;;;;8.00;3.70;;;10.60;1.00;;;;;;5088328;28;20164;-70
2022/10/09 07:36:57;;;;;;;4.80;3.93;;;10.90;1.00;;;;;;5089131;28;20191;-71
2022/10/09 07:39:22;;;;;;;6.77;4.13;;;11.20;1.00;;;;;;5085368;28;20199;-70
2022/10/09 07:41:50;;;;;;;8.03;3.60;;;11.40;1.00;;;;;;5073373;28;20263;-71
2022/10/09 07:44:16;;;;;;;9.10;3.63;;;11.60;1.00;;;;;;5083755;28;20752;-70
2022/10/09 07:46:42;;;;;;;5.40;3.30;;;11.70;1.00;;;;;;5097347;28;20488;-71
2022/10/09 07:49:07;;;;;;;4.93;3.23;;;11.90;1.00;;;;;;5103047;28;20453;-71
2022/10/09 07:51:33;;;;;;;10.23;3.40;;;12.00;1.00;;;;;;5083058;28;20176;-72
2022/10/09 07:54:00;;;;;;;7.50;3.20;;;12.20;1.00;;;;;;5072469;28;20251;-69
2022/10/09 07:56:29;;;;;;;6.97;3.47;;;12.30;1.00;;;;;;5089647;28;20172;-71
2022/10/09 07:58:57;;;;;;;7.47;3.30;;;12.40;1.00;;;;;;5089859;28;20457;-70
2022/10/09 08:01:26;;;;;;;7.70;3.60;;;12.50;1.00;;;;;;5089183;28;20417;-70
2022/10/09 08:03:51;;;;;;;4.97;3.43;;;12.60;1.00;;;;;;5090122;28;20406;-71
2022/10/09 08:06:18;;;;;;;8.00;3.43;;;12.70;1.00;;;;;;5089612;28;20460;-72
2022/10/09 08:08:43;;;;;;;8.93;4.10;;;12.80;1.00;;;;;;5089813;28;20519;-71
2022/10/09 08:11:14;;;;;;;6.67;3.53;;;12.90;1.00;;;;;;5089316;28;20494;-71
2022/10/09 08:13:40;;;;;;;11.90;3.60;;;13.00;1.00;;;;;;5090254;28;20439;-72
2022/10/09 08:16:06;;;;;;;9.13;4.33;;;13.00;1.00;;;;;;5093454;28;20421;-71
2022/10/09 08:18:31;;;;;;;6.00;4.33;;;13.10;1.00;;;;;;5101988;28;20405;-72
2022/10/09 08:21:03;;;;;;;5.40;3.60;;;13.10;1.00;;;;;;5109930;28;20203;-72
2022/10/09 08:23:29;;;;;;;8.00;3.53;;;13.20;1.00;;;;;;5109829;28;20183;-73
2022/10/09 08:25:55;;;;;;;6.93;4.00;;;13.20;1.00;;;;;;5109616;28;20452;-71
2022/10/09 08:28:21;;;;;;;5.87;3.30;;;13.30;1.00;;;;;;5110085;28;20180;-71
2022/10/09 08:30:47;;;;;;;8.57;4.00;;;13.60;1.00;;;;;;5096308;28;20968;-71
2022/10/09 08:33:12;;;;;;;6.80;3.73;;;15.30;1.00;;;;;;5089674;28;20416;-70
2022/10/09 08:35:38;;;;;;;7.60;4.10;;;17.40;1.00;;;;;;5089353;28;20225;-72
2022/10/09 08:38:03;;;;;;;7.17;4.50;;;19.00;1.00;;;;;;5088921;28;20178;-72
2022/10/09 08:40:50;;;;;;;7.00;4.67;;;20.30;1.00;;;;;;5089123;28;20513;-72
2022/10/09 08:43:22;;;;;;;7.80;4.67;;;21.50;1.00;;;;;;5089672;28;20171;-73
2022/10/09 08:45:50;;;;;;;7.00;4.00;;;22.80;1.00;;;;;;5090779;28;20481;-72
2022/10/09 08:48:20;;;;;;;5.40;4.33;;;23.90;1.00;;;;;;5094592;28;20417;-73
2022/10/09 08:50:49;;;;;;;9.30;4.63;;;24.70;1.00;;;;;;5109519;28;20427;-72
2022/10/09 08:53:32;;;;;;;9.70;4.30;;;25.00;1.00;;;;;;5109575;28;20401;-73
2022/10/09 08:56:02;;;;;;;9.57;4.20;;;25.20;1.00;;;;;;5109483;28;20491;-72
2022/10/09 08:58:33;;;;;;;5.30;4.50;;;25.90;1.00;;;;;;5103711;28;20456;-73
2022/10/09 09:01:01;;;;;;;8.90;4.60;;;26.30;1.00;;;;;;5089453;28;20179;-73
2022/10/09 09:03:52;;;;;;;5.83;4.40;;;26.50;1.00;;;;;;5089582;28;20538;-73
2022/10/09 09:06:23;;;;;;;7.10;4.00;;;26.50;1.00;;;;;;5091407;28;20203;-73
2022/10/09 09:09:00;;;;;;;7.90;4.30;;;26.90;1.00;;;;;;5093207;28;20297;-72
2022/10/09 09:11:50;;;;;;;6.90;3.50;;;27.30;1.00;;;;;;5092758;28;20437;-72
2022/10/09 09:14:18;;;;;;;7.57;4.00;;;27.50;1.00;;;;;;5078974;28;20262;-73
2022/10/09 09:17:08;;;;;;;6.55;3.70;;;27.90;1.00;;;;;;5096690;28;20175;-75
2022/10/09 09:20:09;;;;;;;6.57;3.90;;;27.80;1.00;;;;;;5110286;28;20274;-72
2022/10/09 09:22:38;;;;;;;6.37;3.90;;;27.90;1.00;;;;;;5101301;28;20511;-74
2022/10/09 09:25:21;;;;;;;5.95;3.63;;;28.40;1.00;;;;;;5091267;28;20195;-71
2022/10/09 09:27:47;;;;;;;6.85;3.70;;;28.90;1.00;;;;;;5091902;28;20171;-72
2022/10/09 09:30:22;;;;;;;7.57;3.65;;;28.80;1.00;;;;;;5074380;28;20569;-73
2022/10/09 09:33:07;;;;;;;12.13;3.50;;;29.30;1.00;;;;;;5088037;28;20179;-73
2022/10/09 09:35:57;;;;;;;4.97;3.22;;;29.40;1.00;;;;;;5092603;28;20171;-73
2022/10/09 09:38:22;;;;;;;5.78;3.35;;;29.50;1.00;;;;;;5076023;28;20547;-73
2022/10/09 09:40:49;;;;;;;5.50;3.70;;;29.90;1.00;;;;;;5073166;28;20240;-73
2022/10/09 09:43:21;;;;;;;5.22;3.30;;;30.40;1.00;;;;;;5091646;28;20182;-73
2022/10/09 09:45:53;;;;;;;4.22;3.10;;;31.00;1.00;;;;;;5094538;28;20693;-71
2022/10/09 09:48:36;;;;;;;6.22;3.20;;;30.80;1.00;;;;;;5104618;28;20249;-73
2022/10/09 09:51:04;;;;;;;5.20;3.28;;;31.40;1.00;;;;;;5100870;28;20199;-73
2022/10/09 09:53:38;;;;;;;6.18;3.33;;;32.20;1.00;;;;;;5083078;28;20179;-73
2022/10/09 09:56:04;;;;;;;3.88;2.85;;;32.60;1.00;;;;;;5087448;28;20266;-73
2022/10/09 09:58:38;;;;;;;5.85;2.75;;;32.80;1.00;;;;;;5092055;28;20171;-73
2022/10/09 10:01:05;;;;;;;5.13;2.95;;;31.30;1.00;;;;;;5092322;28;20199;-73
2022/10/09 10:03:34;;;;;;;4.93;3.00;;;30.80;1.00;;;;;;5092105;28;20197;-73
2022/10/09 10:06:00;;;;;;;5.13;2.60;;;30.90;1.00;;;;;;5092003;28;20203;-73
2022/10/09 10:08:28;;;;;;;5.93;2.78;;;31.30;1.00;;;;;;5091522;28;20542;-73
2022/10/09 10:10:59;;;;;;;5.43;2.78;;;31.90;1.00;;;;;;5090190;28;20397;-74
2022/10/09 10:13:38;;;;;;;4.78;2.83;;;32.10;1.00;;;;;;5092051;28;20193;-71
2022/10/09 10:16:06;;;;;;;7.80;3.28;;;32.10;1.00;;;;;;5094962;28;20174;-73
2022/10/09 10:18:41;;;;;;;4.63;2.75;;;31.90;1.00;;;;;;5103939;28;20166;-73
2022/10/09 10:21:13;;;;;;;6.35;2.60;;;32.30;1.00;;;;;;5095227;28;20182;-73
2022/10/09 10:24:01;;;;;;;6.05;2.83;;;33.20;1.00;;;;;;5071561;28;20178;-71
2022/10/09 10:26:50;;;;;;;5.57;2.63;;;33.90;1.00;;;;;;5071046;28;20214;-71
2022/10/09 10:29:24;;;;;;;5.40;3.08;;;34.20;1.00;;;;;;5071709;28;20231;-74
2022/10/09 10:32:17;;;;;;;5.18;2.38;;;34.90;1.00;;;;;;5071221;28;20172;-73
2022/10/09 10:34:46;;;;;;;4.47;2.40;;;35.10;1.00;;;;;;5084474;28;20218;-73
2022/10/09 10:37:12;;;;;;;5.90;2.38;;;34.30;1.00;;;;;;5090750;28;20308;-73
2022/10/09 10:39:48;;;;;;;3.72;2.30;;;34.50;1.00;;;;;;5091357;28;20717;-74
2022/10/09 10:42:20;;;;;;;5.45;2.47;;;34.80;1.00;;;;;;5091077;28;20195;-74
2022/10/09 10:45:11;;;;;;;4.20;2.30;;;34.30;1.00;;;;;;5091775;28;20684;-71
2022/10/09 10:47:43;;;;;;;5.30;2.38;;;34.80;1.00;;;;;;5099289;28;20171;-73
2022/10/09 10:50:13;;;;;;;3.75;2.20;;;34.80;1.00;;;;;;5090936;28;20218;-72
2022/10/09 10:52:59;;;;;;;5.70;2.42;;;34.80;1.00;;;;;;5090271;28;20216;-71
2022/10/09 10:55:46;;;;;;;3.83;2.50;;;34.80;1.00;;;;;;5091351;28;20167;-73
2022/10/09 10:58:23;;;;;;;3.28;2.40;;;34.80;1.00;;;;;;5091086;28;20249;-74
2022/10/09 11:01:16;;;;;;;6.55;2.20;;;34.50;1.00;;;;;;5071306;28;20271;-72
2022/10/09 11:04:01;;;;;;;6.00;2.60;;;34.70;1.00;;;;;;5072669;28;20172;-75
2022/10/09 11:06:38;;;;;;;3.70;2.38;;;34.30;1.00;;;;;;5069117;28;20222;-74
2022/10/09 11:09:23;;;;;;;3.38;2.03;;;34.50;1.00;;;;;;5069557;28;20218;-73
2022/10/09 11:12:08;;;;;;;3.25;2.20;;;34.70;1.00;;;;;;5068981;28;20168;-74
2022/10/09 11:14:53;;;;;;;5.10;2.45;;;35.00;1.00;;;;;;5072609;28;20179;-74
2022/10/09 11:17:31;;;;;;;5.60;2.25;;;35.90;1.00;;;;;;5098859;28;20266;-75
2022/10/09 11:20:17;;;;;;;4.57;2.35;;;36.50;1.00;;;;;;5110765;28;20197;-72
2022/10/09 11:22:55;;;;;;;4.35;2.55;;;36.60;1.00;;;;;;5109855;28;20198;-76
2022/10/09 11:25:29;;;;;;;4.25;2.35;;;35.90;1.00;;;;;;5094443;28;20505;-72
2022/10/09 11:28:02;;;;;;;3.83;2.10;;;34.70;1.00;;;;;;5089639;28;20215;-73
2022/10/09 11:30:35;;;;;;;3.28;2.08;;;34.60;1.00;;;;;;5070442;28;20581;-74
2022/10/09 11:33:27;;;;;;;5.25;2.40;;;33.90;1.00;;;;;;5069749;28;20167;-74
2022/10/09 11:35:59;;;;;;;6.53;2.40;;;33.90;1.00;;;;;;5069957;28;20591;-74
2022/10/09 11:38:28;;;;;;;6.00;2.42;;;34.70;1.00;;;;;;5070488;28;20176;-74
2022/10/09 11:40:55;;;;;;;3.85;1.83;;;35.30;1.00;;;;;;5068421;28;20172;-75
2022/10/09 11:43:41;;;;;;;4.45;2.28;;;35.10;1.00;;;;;;5070080;28;20188;-75
2022/10/09 11:46:20;;;;;;;6.30;2.40;;;35.20;1.00;;;;;;5084045;28;20296;-74
2022/10/09 11:49:02;;;;;;;5.88;2.50;;;35.30;1.00;;;;;;5102119;28;20177;-73
2022/10/09 11:51:28;;;;;;;5.20;2.20;;;35.70;1.00;;;;;;5098876;28;20406;-73
2022/10/09 11:53:54;;;;;;;4.63;2.20;;;36.40;1.00;;;;;;5089904;28;20191;-76
2022/10/09 11:56:26;;;;;;;4.45;2.55;;;36.00;1.00;;;;;;5089055;28;20183;-74
2022/10/09 11:59:03;;;;;;;5.40;2.33;;;35.90;1.00;;;;;;5081359;28;20203;-72
2022/10/09 12:01:33;;;;;;;5.35;2.50;;;36.10;1.00;;;;;;5089410;28;20175;-74
2022/10/09 12:04:05;;;;;;;3.83;2.22;;;35.90;1.00;;;;;;5090005;28;20666;-74
2022/10/09 12:06:43;;;;;;;4.82;2.30;;;35.00;1.00;;;;;;5089345;28;20672;-74
2022/10/09 12:09:18;;;;;;;4.00;2.40;;;35.20;1.00;;;;;;5088811;28;20572;-73
2022/10/09 12:11:54;;;;;;;5.25;2.45;;;35.10;1.00;;;;;;5088869;28;20194;-76
2022/10/09 12:14:25;;;;;;;7.18;2.35;;;35.00;1.00;;;;;;5089356;28;20163;-74
2022/10/09 12:16:51;;;;;;;5.93;2.40;;;35.50;1.00;;;;;;5097558;28;20193;-74
2022/10/09 12:19:27;;;;;;;4.85;2.38;;;35.90;1.00;;;;;;5103974;28;20665;-73
2022/10/09 12:22:11;;;;;;;5.80;2.70;;;36.80;1.00;;;;;;5109718;28;20234;-74
2022/10/09 12:24:41;;;;;;;5.30;2.30;;;37.30;1.00;;;;;;5093093;28;20179;-73
2022/10/09 12:27:16;;;;;;;4.07;2.30;;;37.50;1.00;;;;;;5089419;28;20448;-74
2022/10/09 12:29:49;;;;;;;6.00;2.20;;;37.40;1.00;;;;;;5089257;28;20202;-75
2022/10/09 12:32:23;;;;;;;5.82;2.30;;;37.00;1.00;;;;;;5088893;28;20254;-75
2022/10/09 12:34:50;;;;;;;4.65;2.03;;;37.20;1.00;;;;;;5089950;28;20243;-73
2022/10/09 12:37:18;;;;;;;5.00;2.40;;;37.30;1.00;;;;;;5083407;28;20175;-74
2022/10/09 12:39:45;;;;;;;4.82;2.45;;;37.00;1.00;;;;;;5087629;28;20187;-74
2022/10/09 12:42:22;;;;;;;3.88;2.20;;;36.80;1.00;;;;;;5093434;28;20180;-74
2022/10/09 12:44:50;;;;;;;3.67;2.17;;;36.70;1.00;;;;;;5093520;28;20680;-74
2022/10/09 12:47:28;;;;;;;3.55;1.88;;;36.60;1.00;;;;;;5101937;28;20172;-76
2022/10/09 12:50:22;;;;;;;4.45;2.33;;;36.80;1.00;;;;;;5113367;28;20197;-74
2022/10/09 12:53:00;;;;;;;4.40;2.13;;;36.60;1.00;;;;;;5091967;28;20171;-74
2022/10/09 12:55:30;;;;;;;3.42;1.80;;;36.30;1.00;;;;;;5094008;28;20171;-72
2022/10/09 12:58:02;;;;;;;4.50;2.20;;;36.00;1.00;;;;;;5093304;28;20171;-74
2022/10/09 13:00:32;;;;;;;5.00;2.35;;;35.00;1.00;;;;;;5078896;28;20204;-74
2022/10/09 13:02:58;;;;;;;6.25;2.35;;;34.20;1.00;;;;;;5072277;28;20178;-74
2022/10/09 13:05:37;;;;;;;4.13;2.10;;;34.90;1.00;;;;;;5073013;28;20274;-75
2022/10/09 13:08:04;;;;;;;4.32;2.25;;;34.90;1.00;;;;;;5072391;28;20168;-75
2022/10/09 13:10:30;;;;;;;4.13;2.10;;;34.80;1.00;;;;;;5072792;28;20188;-74
2022/10/09 13:12:57;;;;;;;3.08;1.95;;;34.90;1.00;;;;;;5074591;28;20187;-75